Time;durP1;ratioP1;P1;durP2;ratioP2;P2;SDS_P1;SDS_P2;PMS_P1;PMS_P2;Temp;Humidity;BMP_temperature;BMP_pressure;BME280_temperature;BME280_humidity;BME280_pressure;Samples;Min_cycle;Max_cycle;Signal;HPM_P1;HPM_P2
2022/12/29 00:02:11;;;;;;;7.93;5.47;;;;;;;;;;5112868;27;20052;-70
2022/12/29 00:04:37;;;;;;;6.85;5.43;;;;;;;;;;5133150;27;20485;-70
2022/12/29 00:07:06;;;;;;;7.85;5.75;;;;;;;;;;5114997;27;20039;-70
2022/12/29 00:09:33;;;;;;;7.28;5.38;;;;;;;;;;5114100;28;20401;-71
2022/12/29 00:11:59;;;;;;;7.03;5.25;;;;;;;;;;5132901;27;20043;-71
2022/12/29 00:17:10;;;;;;;7.28;5.38;;;;;;;;;;5114437;28;20047;-70
2022/12/29 00:36:13;;;;;;;8.02;4.93;;;;;;;;;;5105759;28;20462;-71
2022/12/29 00:44:12;;;;;;;7.07;4.82;;;;;;;;;;5098921;27;20039;-70
2022/12/29 00:46:38;;;;;;;8.40;5.32;;;;;;;;;;5098008;28;20522;-70
2022/12/29 00:51:50;;;;;;;6.75;4.57;;;;;;;;;;5099921;28;20043;-70
2022/12/29 00:54:17;;;;;;;8.52;5.57;;;;;;;;;;5095225;28;20036;-70
2022/12/29 00:56:43;;;;;;;6.97;4.57;;;;;;;;;;5096162;28;20148;-71
2022/12/29 00:59:11;;;;;;;8.27;5.00;;;;;;;;;;5096837;28;20285;-70
2022/12/29 01:01:38;;;;;;;7.72;4.75;;;;;;;;;;5094799;28;20059;-70
2022/12/29 01:04:04;;;;;;;7.68;5.30;;;;;;;;;;5096527;28;20036;-70
2022/12/29 01:06:31;;;;;;;7.63;4.35;;;;;;;;;;5094923;28;20040;-70
2022/12/29 01:11:42;;;;;;;7.32;4.60;;;;;;;;;;5097278;28;20052;-70
2022/12/29 01:14:08;;;;;;;6.10;4.35;;;;;;;;;;5096064;28;20405;-70
2022/12/29 01:16:36;;;;;;;6.18;4.00;;;;;;;;;;5100313;28;20127;-70
2022/12/29 01:19:02;;;;;;;10.35;4.05;;;;;;;;;;5095202;28;20040;-70
2022/12/29 01:21:28;;;;;;;7.38;4.10;;;;;;;;;;5100975;28;20172;-70
2022/12/29 01:23:54;;;;;;;6.18;4.10;;;;;;;;;;5105445;28;20036;-70
2022/12/29 01:26:20;;;;;;;6.75;4.13;;;;;;;;;;5098873;28;20098;-71
2022/12/29 01:28:47;;;;;;;8.10;3.70;;;;;;;;;;5098870;28;20074;-70
2022/12/29 01:31:14;;;;;;;7.30;3.70;;;;;;;;;;5107747;28;20044;-71
2022/12/29 01:33:40;;;;;;;6.40;3.67;;;;;;;;;;5098873;28;20036;-70
2022/12/29 01:36:08;;;;;;;6.05;3.88;;;;;;;;;;5098948;28;20051;-70
2022/12/29 01:38:35;;;;;;;6.57;3.30;;;;;;;;;;5100631;27;20047;-70
2022/12/29 01:41:01;;;;;;;6.20;3.60;;;;;;;;;;5094421;28;20508;-70
2022/12/29 01:43:54;;;;;;;5.97;3.53;;;;;;;;;;5097831;28;20044;-70
2022/12/29 01:46:26;;;;;;;5.88;3.22;;;;;;;;;;5098840;27;20136;-70
2022/12/29 01:48:54;;;;;;;6.15;3.35;;;;;;;;;;5096418;28;20055;-70
2022/12/29 01:51:22;;;;;;;5.82;3.33;;;;;;;;;;5097828;28;20078;-70
2022/12/29 01:53:48;;;;;;;6.28;3.30;;;;;;;;;;5100492;28;20489;-70
2022/12/29 01:56:16;;;;;;;5.68;3.55;;;;;;;;;;5100398;28;20040;-70
2022/12/29 01:58:45;;;;;;;5.60;3.30;;;;;;;;;;5102825;28;20040;-70
2022/12/29 02:01:11;;;;;;;6.70;3.00;;;;;;;;;;5107356;28;20052;-70
2022/12/29 02:03:37;;;;;;;5.63;3.17;;;;;;;;;;5116768;28;20100;-71
2022/12/29 02:06:11;;;;;;;5.78;3.35;;;;;;;;;;5118005;27;20054;-70
2022/12/29 02:08:38;;;;;;;5.47;3.20;;;;;;;;;;5116603;28;20043;-70
2022/12/29 02:11:04;;;;;;;5.28;3.15;;;;;;;;;;5112596;28;20486;-70
2022/12/29 02:13:30;;;;;;;6.07;3.15;;;;;;;;;;5109096;28;20040;-70
2022/12/29 02:16:02;;;;;;;6.18;3.00;;;;;;;;;;5095156;28;20122;-70
2022/12/29 02:18:39;;;;;;;6.30;3.10;;;;;;;;;;5116340;28;20074;-70
2022/12/29 02:21:05;;;;;;;5.90;3.00;;;;;;;;;;5114773;28;20055;-70
2022/12/29 02:23:31;;;;;;;5.05;2.72;;;;;;;;;;5115065;28;20122;-70
2022/12/29 02:25:57;;;;;;;5.18;2.60;;;;;;;;;;5097329;28;20043;-70
2022/12/29 02:28:23;;;;;;;9.13;2.80;;;;;;;;;;5112471;28;20096;-70
2022/12/29 02:31:03;;;;;;;5.50;2.58;;;;;;;;;;5098178;28;20097;-70
2022/12/29 02:33:32;;;;;;;5.28;2.65;;;;;;;;;;5097343;27;20398;-70
2022/12/29 02:36:07;;;;;;;6.22;2.75;;;;;;;;;;5103680;27;20040;-70
2022/12/29 02:38:43;;;;;;;5.45;2.67;;;;;;;;;;5109174;28;20062;-70
2022/12/29 02:41:31;;;;;;;5.57;2.80;;;;;;;;;;5112376;28;20126;-71
2022/12/29 02:44:03;;;;;;;6.43;2.80;;;;;;;;;;5108814;27;20055;-71
2022/12/29 02:46:38;;;;;;;5.57;2.70;;;;;;;;;;5113189;27;20142;-73
2022/12/29 02:49:13;;;;;;;6.22;2.60;;;;;;;;;;5110389;27;20042;-71
2022/12/29 02:51:44;;;;;;;10.00;3.33;;;;;;;;;;5113549;28;20047;-71
2022/12/29 02:56:55;;;;;;;5.00;2.80;;;;;;;;;;5100510;28;20055;-70
2022/12/29 02:59:22;;;;;;;4.57;2.42;;;;;;;;;;5099080;28;20055;-70
2022/12/29 03:04:45;;;;;;;4.63;2.70;;;;;;;;;;5098208;28;20465;-70
2022/12/29 03:07:29;;;;;;;4.70;2.25;;;;;;;;;;5101435;27;20127;-70
2022/12/29 03:10:02;;;;;;;6.35;2.60;;;;;;;;;;5099041;28;20042;-70
2022/12/29 03:18:16;;;;;;;5.68;2.50;;;;;;;;;;5098782;27;20044;-70
2022/12/29 03:20:52;;;;;;;6.00;2.42;;;;;;;;;;5099840;28;20051;-70
2022/12/29 03:23:20;;;;;;;3.88;1.90;;;;;;;;;;5098551;28;20055;-70
2022/12/29 03:25:48;;;;;;;4.70;2.05;;;;;;;;;;5100224;28;20040;-70
2022/12/29 03:28:18;;;;;;;6.18;2.17;;;;;;;;;;5099891;28;20043;-70
2022/12/29 03:30:45;;;;;;;4.13;1.98;;;;;;;;;;5098889;28;20031;-70
2022/12/29 03:33:14;;;;;;;4.72;2.00;;;;;;;;;;5097697;28;20039;-70
2022/12/29 03:35:42;;;;;;;5.88;2.20;;;;;;;;;;5097199;28;20036;-70
2022/12/29 03:38:16;;;;;;;4.95;2.30;;;;;;;;;;5098925;28;20108;-70
2022/12/29 03:40:45;;;;;;;4.60;2.00;;;;;;;;;;5101461;28;20052;-70
2022/12/29 03:43:12;;;;;;;4.55;2.10;;;;;;;;;;5097093;28;21022;-70
2022/12/29 03:45:38;;;;;;;4.97;2.30;;;;;;;;;;5096506;28;20044;-70
2022/12/29 03:48:04;;;;;;;4.15;2.10;;;;;;;;;;5093796;28;20042;-70
2022/12/29 03:50:30;;;;;;;3.83;1.98;;;;;;;;;;5100209;28;20031;-70
2022/12/29 03:52:56;;;;;;;4.45;1.80;;;;;;;;;;5098747;28;20047;-71
2022/12/29 03:55:22;;;;;;;4.20;1.95;;;;;;;;;;5097618;28;20048;-70
2022/12/29 03:57:48;;;;;;;5.35;2.22;;;;;;;;;;5096033;28;20040;-70
2022/12/29 04:00:15;;;;;;;6.00;1.80;;;;;;;;;;5111618;28;20122;-70
2022/12/29 04:02:41;;;;;;;4.90;1.98;;;;;;;;;;5112706;28;20051;-70
2022/12/29 04:05:07;;;;;;;5.10;1.75;;;;;;;;;;5124136;27;20043;-70
2022/12/29 04:07:33;;;;;;;5.70;1.83;;;;;;;;;;5134647;27;20039;-70
2022/12/29 04:09:59;;;;;;;4.38;1.52;;;;;;;;;;5134594;27;20053;-71
2022/12/29 04:12:25;;;;;;;6.93;1.80;;;;;;;;;;5126445;27;20050;-70
2022/12/29 04:14:52;;;;;;;6.18;1.67;;;;;;;;;;5114042;28;20044;-70
2022/12/29 04:17:18;;;;;;;5.40;1.75;;;;;;;;;;5122162;27;20042;-70
2022/12/29 04:19:44;;;;;;;11.90;1.83;;;;;;;;;;5134539;27;20054;-71
2022/12/29 04:22:11;;;;;;;3.97;1.35;;;;;;;;;;5113020;27;20043;-70
2022/12/29 04:24:37;;;;;;;5.90;1.33;;;;;;;;;;5134442;27;20053;-70
2022/12/29 04:27:03;;;;;;;7.72;1.90;;;;;;;;;;5134239;27;20039;-70
2022/12/29 04:29:29;;;;;;;5.82;1.60;;;;;;;;;;5113546;27;20585;-70
2022/12/29 04:31:55;;;;;;;5.88;1.70;;;;;;;;;;5096626;28;20127;-70
2022/12/29 04:34:22;;;;;;;6.80;1.70;;;;;;;;;;5096897;28;20048;-70
2022/12/29 04:36:48;;;;;;;5.32;1.58;;;;;;;;;;5095929;28;20039;-70
2022/12/29 04:39:14;;;;;;;5.53;1.48;;;;;;;;;;5096073;28;20048;-70
2022/12/29 04:41:40;;;;;;;5.78;1.50;;;;;;;;;;5096581;28;20461;-70
2022/12/29 04:44:06;;;;;;;6.20;1.40;;;;;;;;;;5098943;28;20043;-70
2022/12/29 04:46:32;;;;;;;9.75;1.70;;;;;;;;;;5100303;28;20409;-70
2022/12/29 04:49:00;;;;;;;6.68;1.35;;;;;;;;;;5099984;28;20043;-70
2022/12/29 04:51:26;;;;;;;7.45;1.25;;;;;;;;;;5097390;28;20100;-70
2022/12/29 04:53:52;;;;;;;6.03;1.13;;;;;;;;;;5098848;28;20047;-70
2022/12/29 04:56:18;;;;;;;7.90;1.30;;;;;;;;;;5100289;28;20051;-70
2022/12/29 04:58:44;;;;;;;7.05;1.40;;;;;;;;;;5095269;28;20040;-70
2022/12/29 05:01:10;;;;;;;5.38;1.10;;;;;;;;;;5098802;28;20052;-70
2022/12/29 05:03:36;;;;;;;7.63;1.50;;;;;;;;;;5102588;28;20112;-70
2022/12/29 05:06:02;;;;;;;6.35;1.13;;;;;;;;;;5108631;28;20043;-70
2022/12/29 05:08:28;;;;;;;6.43;1.30;;;;;;;;;;5096518;28;20051;-70
2022/12/29 05:10:54;;;;;;;8.57;1.33;;;;;;;;;;5110424;28;20039;-71
2022/12/29 05:13:20;;;;;;;5.60;1.10;;;;;;;;;;5094546;28;20044;-71
2022/12/29 05:15:53;;;;;;;7.88;1.40;;;;;;;;;;5108549;28;20563;-71
2022/12/29 05:18:19;;;;;;;7.72;1.30;;;;;;;;;;5105554;28;20043;-71
2022/12/29 05:20:46;;;;;;;7.20;1.00;;;;;;;;;;5104022;27;20047;-70
2022/12/29 05:23:12;;;;;;;6.07;1.23;;;;;;;;;;5102375;28;20039;-70
2022/12/29 05:25:38;;;;;;;5.97;1.35;;;;;;;;;;5101792;28;20048;-71
2022/12/29 05:28:04;;;;;;;8.23;1.50;;;;;;;;;;5101300;28;20043;-71
2022/12/29 05:30:30;;;;;;;8.27;1.25;;;;;;;;;;5100399;28;20051;-71
2022/12/29 05:32:56;;;;;;;7.38;1.20;;;;;;;;;;5099826;28;20047;-71
2022/12/29 05:35:22;;;;;;;6.60;1.27;;;;;;;;;;5099646;28;20492;-71
2022/12/29 05:37:48;;;;;;;7.07;1.45;;;;;;;;;;5101699;28;20409;-71
2022/12/29 05:40:14;;;;;;;5.40;1.38;;;;;;;;;;5097815;27;20071;-70
2022/12/29 05:42:41;;;;;;;7.18;1.40;;;;;;;;;;5097665;27;20052;-71
2022/12/29 05:45:07;;;;;;;9.35;1.60;;;;;;;;;;5099346;27;20040;-71
2022/12/29 05:47:34;;;;;;;7.28;1.60;;;;;;;;;;5100071;28;20447;-70
2022/12/29 05:50:00;;;;;;;7.05;1.60;;;;;;;;;;5099946;28;20052;-70
2022/12/29 05:52:26;;;;;;;8.23;1.50;;;;;;;;;;5101548;28;20076;-70
2022/12/29 05:54:52;;;;;;;7.35;1.50;;;;;;;;;;5102425;28;20046;-70
2022/12/29 05:57:18;;;;;;;8.13;1.75;;;;;;;;;;5101921;28;20485;-70
2022/12/29 05:59:45;;;;;;;7.72;1.50;;;;;;;;;;5100018;27;20414;-70
2022/12/29 06:02:11;;;;;;;8.15;1.80;;;;;;;;;;5115532;28;20052;-71
2022/12/29 06:04:37;;;;;;;7.55;1.90;;;;;;;;;;5110841;28;20044;-71
2022/12/29 06:07:03;;;;;;;9.70;1.90;;;;;;;;;;5116311;28;20052;-70
2022/12/29 06:09:29;;;;;;;6.80;1.67;;;;;;;;;;5116576;28;20051;-71
2022/12/29 06:11:55;;;;;;;8.27;1.70;;;;;;;;;;5105597;28;20498;-71
2022/12/29 06:14:21;;;;;;;7.35;1.60;;;;;;;;;;5096246;27;20501;-71
2022/12/29 06:16:47;;;;;;;7.72;1.70;;;;;;;;;;5121017;27;20443;-71
2022/12/29 06:19:13;;;;;;;6.50;1.90;;;;;;;;;;5098087;28;20052;-70
2022/12/29 06:21:39;;;;;;;8.93;2.78;;;;;;;;;;5099665;28;21670;-70
2022/12/29 06:24:05;;;;;;;10.25;1.85;;;;;;;;;;5099138;28;20047;-71
2022/12/29 06:26:31;;;;;;;8.50;2.20;;;;;;;;;;5102131;28;20036;-71
2022/12/29 06:28:57;;;;;;;8.52;2.10;;;;;;;;;;5104497;27;20455;-71
2022/12/29 06:31:23;;;;;;;7.32;1.60;;;;;;;;;;5100114;28;20439;-71
2022/12/29 06:33:49;;;;;;;9.75;1.90;;;;;;;;;;5100354;28;20079;-71
2022/12/29 06:36:16;;;;;;;10.23;1.80;;;;;;;;;;5101110;28;20046;-70
2022/12/29 06:38:42;;;;;;;9.38;2.30;;;;;;;;;;5100652;28;20505;-70
2022/12/29 06:41:08;;;;;;;8.27;2.28;;;;;;;;;;5099961;27;20405;-71
2022/12/29 06:43:35;;;;;;;9.75;2.03;;;;;;;;;;5101981;27;20827;-71
2022/12/29 06:46:01;;;;;;;8.20;1.88;;;;;;;;;;5099270;28;20040;-71
2022/12/29 06:48:27;;;;;;;11.77;2.25;;;;;;;;;;5097689;27;20089;-71
2022/12/29 06:50:53;;;;;;;7.85;1.60;;;;;;;;;;5098789;28;20044;-71
2022/12/29 06:53:19;;;;;;;11.32;1.88;;;;;;;;;;5101339;27;20455;-71
2022/12/29 06:55:46;;;;;;;10.23;1.50;;;;;;;;;;5101900;28;20046;-71
2022/12/29 06:58:12;;;;;;;9.85;2.00;;;;;;;;;;5100125;28;20058;-71
2022/12/29 07:00:38;;;;;;;9.57;1.63;;;;;;;;;;5098555;28;20381;-71
2022/12/29 07:03:04;;;;;;;9.80;1.70;;;;;;;;;;5098573;28;20505;-71
2022/12/29 07:05:32;;;;;;;9.10;2.13;;;;;;;;;;5099941;27;20456;-70
2022/12/29 07:07:58;;;;;;;8.27;1.50;;;;;;;;;;5100938;28;20115;-71
2022/12/29 07:10:24;;;;;;;13.35;2.25;;;;;;;;;;5098144;28;20058;-71
2022/12/29 07:12:50;;;;;;;12.00;3.00;;;;;;;;;;5099232;28;20047;-70
2022/12/29 07:15:16;;;;;;;12.38;3.47;;;;;;;;;;5099373;28;21566;-70
2022/12/29 07:17:42;;;;;;;11.48;3.10;;;;;;;;;;5099228;27;20036;-71
2022/12/29 07:20:09;;;;;;;9.77;2.50;;;;;;;;;;5109570;28;20431;-71
2022/12/29 07:22:35;;;;;;;10.48;2.00;;;;;;;;;;5105685;28;20040;-70
2022/12/29 07:25:02;;;;;;;10.07;2.20;;;;;;;;;;5107307;27;20054;-70
2022/12/29 07:27:28;;;;;;;11.15;2.35;;;;;;;;;;5111229;28;20044;-71
2022/12/29 07:29:54;;;;;;;10.30;2.00;;;;;;;;;;5111379;28;20035;-71
2022/12/29 07:32:20;;;;;;;12.00;2.47;;;;;;;;;;5113767;28;20044;-71
2022/12/29 07:34:47;;;;;;;13.38;3.10;;;;;;;;;;5112224;28;20397;-71
2022/12/29 07:37:13;;;;;;;13.15;2.17;;;;;;;;;;5110881;27;20047;-70
2022/12/29 07:39:40;;;;;;;11.88;2.38;;;;;;;;;;5109931;28;20413;-71
2022/12/29 07:42:06;;;;;;;10.98;2.90;;;;;;;;;;5109382;27;20053;-71
2022/12/29 07:44:32;;;;;;;10.77;2.65;;;;;;;;;;5105073;27;20050;-71
2022/12/29 07:46:58;;;;;;;16.92;2.40;;;;;;;;;;5106829;28;20035;-70
2022/12/29 07:49:24;;;;;;;11.25;2.28;;;;;;;;;;5109868;28;20039;-71
2022/12/29 07:51:50;;;;;;;14.15;2.33;;;;;;;;;;5105516;27;20043;-70
2022/12/29 07:54:18;;;;;;;15.25;2.35;;;;;;;;;;5093528;28;20043;-71
2022/12/29 07:56:44;;;;;;;14.88;2.30;;;;;;;;;;5099979;28;20043;-71
2022/12/29 07:59:11;;;;;;;11.30;1.92;;;;;;;;;;5110571;28;20088;-71
2022/12/29 08:01:38;;;;;;;13.07;2.60;;;;;;;;;;5108817;28;20438;-71
2022/12/29 08:04:04;;;;;;;11.98;2.00;;;;;;;;;;5108743;28;20047;-72
2022/12/29 08:06:30;;;;;;;9.20;1.90;;;;;;;;;;5108129;28;20043;-71
2022/12/29 08:08:57;;;;;;;10.55;2.20;;;;;;;;;;5113023;28;20378;-72
2022/12/29 08:11:23;;;;;;;10.52;1.98;;;;;;;;;;5107840;28;20086;-71
2022/12/29 08:13:49;;;;;;;12.07;2.13;;;;;;;;;;5112794;28;20044;-71
2022/12/29 08:16:15;;;;;;;12.55;2.20;;;;;;;;;;5101313;28;20051;-70
2022/12/29 08:18:42;;;;;;;11.40;1.90;;;;;;;;;;5102829;28;20136;-71
2022/12/29 08:21:08;;;;;;;13.50;2.40;;;;;;;;;;5112673;28;20464;-70
2022/12/29 08:23:34;;;;;;;15.48;2.42;;;;;;;;;;5110821;27;20450;-70
2022/12/29 08:26:04;;;;;;;13.40;2.47;;;;;;;;;;5099250;28;20126;-71
2022/12/29 08:28:31;;;;;;;13.13;2.42;;;;;;;;;;5104685;28;20040;-71
2022/12/29 08:31:01;;;;;;;13.27;3.05;;;;;;;;;;5112948;28;20047;-71
2022/12/29 08:33:27;;;;;;;11.45;2.10;;;;;;;;;;5110202;28;20047;-71
2022/12/29 08:35:53;;;;;;;13.05;2.20;;;;;;;;;;5118893;27;20051;-71
2022/12/29 08:38:19;;;;;;;13.25;2.58;;;;;;;;;;5109145;28;20085;-71
2022/12/29 08:40:45;;;;;;;17.20;2.95;;;;;;;;;;5109726;28;20043;-71
2022/12/29 08:43:11;;;;;;;11.13;2.42;;;;;;;;;;5111166;28;20039;-71
2022/12/29 08:45:37;;;;;;;11.40;2.10;;;;;;;;;;5106081;28;20040;-71
2022/12/29 08:48:04;;;;;;;14.13;2.35;;;;;;;;;;5109782;28;20047;-71
2022/12/29 08:50:30;;;;;;;14.95;2.40;;;;;;;;;;5106533;28;20055;-73
2022/12/29 08:52:56;;;;;;;15.63;3.00;;;;;;;;;;5098173;28;20044;-72
2022/12/29 08:55:22;;;;;;;11.63;2.05;;;;;;;;;;5101334;28;20048;-72
2022/12/29 08:57:48;;;;;;;15.50;2.47;;;;;;;;;;5098797;28;20036;-75
2022/12/29 09:00:14;;;;;;;11.95;1.92;;;;;;;;;;5108140;28;20047;-75
2022/12/29 09:02:40;;;;;;;14.10;2.30;;;;;;;;;;5107086;28;20060;-75
2022/12/29 09:05:07;;;;;;;12.90;2.20;;;;;;;;;;5107561;28;20040;-76
2022/12/29 09:07:33;;;;;;;14.55;2.45;;;;;;;;;;5111185;28;20039;-77
2022/12/29 09:09:59;;;;;;;15.00;2.67;;;;;;;;;;5093682;28;20032;-75
2022/12/29 09:12:25;;;;;;;10.15;2.10;;;;;;;;;;5112881;28;20054;-77
2022/12/29 09:14:51;;;;;;;14.10;2.40;;;;;;;;;;5090199;28;20062;-77
2022/12/29 09:20:02;;;;;;;8.32;2.17;;;;;;;;;;5091217;28;20063;-77
2022/12/29 09:22:28;;;;;;;16.05;2.05;;;;;;;;;;5092550;28;20062;-76
2022/12/29 09:24:55;;;;;;;9.60;1.75;;;;;;;;;;5099581;28;20044;-76
2022/12/29 09:27:21;;;;;;;10.10;1.73;;;;;;;;;;5094020;28;20052;-76
2022/12/29 09:29:47;;;;;;;11.48;1.80;;;;;;;;;;5107562;28;20047;-76
2022/12/29 09:32:13;;;;;;;10.43;1.92;;;;;;;;;;5115151;28;20392;-75
2022/12/29 09:34:39;;;;;;;11.52;2.55;;;;;;;;;;5132073;27;20051;-76
2022/12/29 09:37:05;;;;;;;15.07;2.13;;;;;;;;;;5097725;28;20044;-76
2022/12/29 09:39:31;;;;;;;12.30;2.47;;;;;;;;;;5098826;28;20542;-75
2022/12/29 09:42:06;;;;;;;11.05;2.20;;;;;;;;;;5095502;28;20067;-77
2022/12/29 09:44:43;;;;;;;11.95;2.25;;;;;;;;;;5097713;28;20028;-76
2022/12/29 09:47:11;;;;;;;9.10;1.85;;;;;;;;;;5115951;28;20039;-79
2022/12/29 09:49:42;;;;;;;14.73;2.35;;;;;;;;;;5117192;28;20055;-76
2022/12/29 09:52:13;;;;;;;11.27;2.03;;;;;;;;;;5108333;28;20046;-77
2022/12/29 09:54:42;;;;;;;10.55;2.67;;;;;;;;;;5117888;28;20048;-77
2022/12/29 09:57:15;;;;;;;11.73;2.20;;;;;;;;;;5113315;28;20039;-74
2022/12/29 09:59:43;;;;;;;13.35;2.70;;;;;;;;;;5078474;28;20040;-76
2022/12/29 10:02:18;;;;;;;15.80;2.58;;;;;;;;;;5101211;28;20047;-76
2022/12/29 10:04:44;;;;;;;12.48;2.00;;;;;;;;;;5104387;27;20039;-74
2022/12/29 10:07:27;;;;;;;13.05;2.58;;;;;;;;;;5119076;27;20047;-75
2022/12/29 10:10:01;;;;;;;17.67;2.95;;;;;;;;;;5107548;28;20048;-75
2022/12/29 10:12:29;;;;;;;14.88;2.15;;;;;;;;;;5095806;27;20064;-75
2022/12/29 10:14:59;;;;;;;11.25;1.90;;;;;;;;;;5101242;28;20035;-75
2022/12/29 10:17:28;;;;;;;10.88;2.00;;;;;;;;;;5114899;27;20553;-73
2022/12/29 10:20:02;;;;;;;11.35;2.10;;;;;;;;;;5108251;28;20040;-73
2022/12/29 10:22:28;;;;;;;12.50;2.22;;;;;;;;;;5105654;28;20476;-73
2022/12/29 10:24:56;;;;;;;12.35;2.45;;;;;;;;;;5113706;27;20040;-73
2022/12/29 10:27:23;;;;;;;12.02;1.88;;;;;;;;;;5108238;28;20047;-74
2022/12/29 10:29:55;;;;;;;10.98;2.65;;;;;;;;;;5110727;28;20043;-72
2022/12/29 10:32:21;;;;;;;11.75;2.30;;;;;;;;;;5114311;28;20047;-72
2022/12/29 10:34:49;;;;;;;10.82;2.10;;;;;;;;;;5112480;27;20051;-73
2022/12/29 10:37:29;;;;;;;13.77;2.40;;;;;;;;;;5094148;28;20101;-72
2022/12/29 10:39:56;;;;;;;10.45;2.25;;;;;;;;;;5099144;28;20043;-72
2022/12/29 10:42:29;;;;;;;13.95;2.38;;;;;;;;;;5107584;28;20059;-73
2022/12/29 10:44:56;;;;;;;11.77;2.10;;;;;;;;;;5113847;28;20070;-73
2022/12/29 10:47:25;;;;;;;13.30;2.60;;;;;;;;;;5115062;28;20126;-72
2022/12/29 10:49:51;;;;;;;12.02;2.63;;;;;;;;;;5110765;28;20086;-72
2022/12/29 10:52:18;;;;;;;13.27;2.10;;;;;;;;;;5097815;28;20044;-73
2022/12/29 10:54:50;;;;;;;10.75;2.42;;;;;;;;;;5109362;27;20036;-73
2022/12/29 10:57:16;;;;;;;12.45;2.20;;;;;;;;;;5111765;27;20048;-74
2022/12/29 10:59:42;;;;;;;13.65;2.33;;;;;;;;;;5129435;27;20043;-73
2022/12/29 11:02:11;;;;;;;11.82;2.10;;;;;;;;;;5105405;27;20055;-73
2022/12/29 11:04:56;;;;;;;12.32;2.65;;;;;;;;;;5123552;27;20104;-73
2022/12/29 11:07:23;;;;;;;10.70;2.13;;;;;;;;;;5112279;27;20114;-73
2022/12/29 11:09:49;;;;;;;11.02;2.00;;;;;;;;;;5109003;27;20498;-73
2022/12/29 11:12:24;;;;;;;10.82;2.38;;;;;;;;;;5112108;27;20058;-73
2022/12/29 11:15:02;;;;;;;11.43;2.60;;;;;;;;;;5123699;27;20043;-73
2022/12/29 11:17:28;;;;;;;9.63;2.55;;;;;;;;;;5101079;27;20032;-73
2022/12/29 11:19:54;;;;;;;12.00;2.45;;;;;;;;;;5108545;28;20048;-73
2022/12/29 11:22:22;;;;;;;12.10;2.38;;;;;;;;;;5106845;28;20058;-73
2022/12/29 11:24:49;;;;;;;14.20;2.10;;;;;;;;;;5095431;27;20485;-73
2022/12/29 11:27:26;;;;;;;10.25;1.92;;;;;;;;;;5103747;28;20054;-73
2022/12/29 11:29:53;;;;;;;11.95;2.22;;;;;;;;;;5114098;27;20053;-73
2022/12/29 11:32:23;;;;;;;11.20;1.73;;;;;;;;;;5101529;27;20040;-73
2022/12/29 11:34:50;;;;;;;9.67;1.80;;;;;;;;;;5096601;27;20044;-73
2022/12/29 11:37:34;;;;;;;9.90;2.30;;;;;;;;;;5106236;28;20132;-73
2022/12/29 11:40:20;;;;;;;10.48;2.58;;;;;;;;;;5100432;28;20500;-73
2022/12/29 11:42:51;;;;;;;7.78;2.13;;;;;;;;;;5098716;28;20493;-73
2022/12/29 11:45:19;;;;;;;8.23;2.20;;;;;;;;;;5098829;28;20051;-73
2022/12/29 11:47:47;;;;;;;12.88;2.85;;;;;;;;;;5104230;28;20402;-73
2022/12/29 11:50:42;;;;;;;9.85;2.63;;;;;;;;;;5106845;27;20409;-72
2022/12/29 11:53:25;;;;;;;16.17;3.20;;;;;;;;;;5101387;28;20043;-73
2022/12/29 11:56:19;;;;;;;11.77;2.80;;;;;;;;;;5099198;28;20047;-72
2022/12/29 11:58:47;;;;;;;15.25;2.97;;;;;;;;;;5092933;28;20055;-73
2022/12/29 12:01:19;;;;;;;12.07;3.30;;;;;;;;;;5095549;27;20062;-72
2022/12/29 12:03:53;;;;;;;12.60;2.85;;;;;;;;;;5106192;28;21030;-73
2022/12/29 12:06:22;;;;;;;15.43;3.35;;;;;;;;;;5099538;28;20047;-73
2022/12/29 12:09:11;;;;;;;13.88;3.40;;;;;;;;;;5104622;28;20504;-73
2022/12/29 12:11:43;;;;;;;17.05;3.45;;;;;;;;;;5100863;27;20074;-72
2022/12/29 12:14:14;;;;;;;10.45;3.08;;;;;;;;;;5106730;28;20401;-73
2022/12/29 12:16:43;;;;;;;16.77;2.75;;;;;;;;;;5112854;27;20484;-73
2022/12/29 12:19:14;;;;;;;14.10;3.10;;;;;;;;;;5099139;27;20173;-72
2022/12/29 12:21:41;;;;;;;14.93;2.47;;;;;;;;;;5103230;27;20040;-72
2022/12/29 12:24:26;;;;;;;14.05;2.72;;;;;;;;;;5106076;27;20043;-73
2022/12/29 12:26:56;;;;;;;16.77;3.17;;;;;;;;;;5111806;28;20092;-73
2022/12/29 12:29:41;;;;;;;13.27;2.95;;;;;;;;;;5112612;27;20048;-73
2022/12/29 12:32:25;;;;;;;14.70;3.00;;;;;;;;;;5102126;28;20044;-73
2022/12/29 12:34:51;;;;;;;15.13;3.10;;;;;;;;;;5097285;28;20048;-73
2022/12/29 12:37:30;;;;;;;15.18;3.00;;;;;;;;;;5092329;28;20044;-73
2022/12/29 12:40:15;;;;;;;12.63;2.78;;;;;;;;;;5092336;28;20052;-73
2022/12/29 12:42:43;;;;;;;15.57;2.45;;;;;;;;;;5099798;28;20119;-73
2022/12/29 12:45:29;;;;;;;17.65;3.10;;;;;;;;;;5109181;27;20051;-73
2022/12/29 12:48:19;;;;;;;15.10;2.88;;;;;;;;;;5109734;27;20043;-73
2022/12/29 12:50:45;;;;;;;16.88;3.10;;;;;;;;;;5098993;28;20050;-73
2022/12/29 12:53:17;;;;;;;12.15;2.75;;;;;;;;;;5092810;27;20420;-73
2022/12/29 12:55:43;;;;;;;20.45;2.88;;;;;;;;;;5104693;28;20048;-73
2022/12/29 12:58:12;;;;;;;18.30;3.22;;;;;;;;;;5108713;28;20052;-72
2022/12/29 13:00:51;;;;;;;15.73;3.58;;;;;;;;;;5096314;28;20092;-73
2022/12/29 13:03:24;;;;;;;14.73;3.30;;;;;;;;;;5106959;28;20393;-73
2022/12/29 13:06:08;;;;;;;13.88;2.80;;;;;;;;;;5091861;28;20052;-72
2022/12/29 13:08:50;;;;;;;13.90;3.00;;;;;;;;;;5095214;27;20044;-73
2022/12/29 13:11:25;;;;;;;17.30;3.13;;;;;;;;;;5092592;28;20051;-73
2022/12/29 13:14:10;;;;;;;14.82;3.03;;;;;;;;;;5092040;28;20044;-73
2022/12/29 13:16:36;;;;;;;14.85;3.03;;;;;;;;;;5099533;28;20554;-73
2022/12/29 13:19:22;;;;;;;17.52;3.17;;;;;;;;;;5108275;28;20055;-73
2022/12/29 13:22:09;;;;;;;14.77;2.78;;;;;;;;;;5102196;28;20058;-73
2022/12/29 13:24:42;;;;;;;15.77;3.00;;;;;;;;;;5109276;28;20123;-73
2022/12/29 13:27:11;;;;;;;19.42;3.22;;;;;;;;;;5101549;28;20044;-73
2022/12/29 13:29:43;;;;;;;16.33;3.10;;;;;;;;;;5101430;28;20036;-73
2022/12/29 13:32:23;;;;;;;16.73;3.20;;;;;;;;;;5092046;28;20047;-73
2022/12/29 13:35:01;;;;;;;16.25;2.70;;;;;;;;;;5097949;28;20050;-73
2022/12/29 13:37:28;;;;;;;18.00;2.58;;;;;;;;;;5112570;28;20524;-73
2022/12/29 13:39:59;;;;;;;15.57;3.00;;;;;;;;;;5114885;28;20039;-73
2022/12/29 13:42:26;;;;;;;17.35;3.35;;;;;;;;;;5103885;27;20043;-73
2022/12/29 13:45:00;;;;;;;15.63;2.63;;;;;;;;;;5134546;27;20051;-73
2022/12/29 13:47:26;;;;;;;17.48;2.95;;;;;;;;;;5129008;27;20509;-73
2022/12/29 13:49:53;;;;;;;17.52;2.45;;;;;;;;;;5116273;27;20047;-73
2022/12/29 13:52:25;;;;;;;15.02;3.00;;;;;;;;;;5114789;28;20052;-73
2022/12/29 13:54:57;;;;;;;18.52;3.22;;;;;;;;;;5111437;27;20463;-73
2022/12/29 13:57:32;;;;;;;16.63;3.05;;;;;;;;;;5115110;28;20116;-73
2022/12/29 14:00:02;;;;;;;15.35;2.70;;;;;;;;;;5115892;28;20048;-73
2022/12/29 14:02:47;;;;;;;14.40;2.78;;;;;;;;;;5114419;28;20101;-73
2022/12/29 14:05:19;;;;;;;15.27;3.13;;;;;;;;;;5115869;28;20116;-73
2022/12/29 14:07:45;;;;;;;13.98;3.42;;;;;;;;;;5112568;28;20378;-73
2022/12/29 14:10:30;;;;;;;18.83;2.90;;;;;;;;;;5115322;28;20039;-73
2022/12/29 14:13:01;;;;;;;20.38;3.28;;;;;;;;;;5113297;28;20126;-73
2022/12/29 14:15:27;;;;;;;21.90;3.00;;;;;;;;;;5098538;28;20526;-73
2022/12/29 14:18:11;;;;;;;18.98;3.45;;;;;;;;;;5095370;28;20048;-73
2022/12/29 14:20:38;;;;;;;17.45;2.85;;;;;;;;;;5104883;28;20039;-73
2022/12/29 14:23:10;;;;;;;12.93;2.65;;;;;;;;;;5114373;28;20055;-73
2022/12/29 14:25:54;;;;;;;20.20;3.10;;;;;;;;;;5112991;28;20051;-72
2022/12/29 14:28:26;;;;;;;18.95;3.10;;;;;;;;;;5114137;27;20051;-73
2022/12/29 14:30:53;;;;;;;15.40;3.45;;;;;;;;;;5115512;27;20047;-73
2022/12/29 14:33:20;;;;;;;15.20;2.72;;;;;;;;;;5115352;28;20050;-73
2022/12/29 14:35:49;;;;;;;16.77;3.13;;;;;;;;;;5115374;28;20100;-71
2022/12/29 14:38:15;;;;;;;19.85;3.35;;;;;;;;;;5114851;28;20040;-74
2022/12/29 14:40:41;;;;;;;19.98;3.47;;;;;;;;;;5114172;28;20084;-74
2022/12/29 14:43:13;;;;;;;20.90;3.83;;;;;;;;;;5113138;28;20146;-73
2022/12/29 14:45:41;;;;;;;15.23;3.83;;;;;;;;;;5115100;28;20354;-73
2022/12/29 14:48:30;;;;;;;16.67;3.25;;;;;;;;;;5111822;27;20039;-74
2022/12/29 14:50:56;;;;;;;15.30;3.13;;;;;;;;;;5095597;28;20059;-74
2022/12/29 14:53:41;;;;;;;16.63;3.33;;;;;;;;;;5097106;27;20469;-73
2022/12/29 14:56:09;;;;;;;14.55;3.35;;;;;;;;;;5113452;27;20040;-73
2022/12/29 14:58:44;;;;;;;21.55;4.55;;;;;;;;;;5107518;28;20058;-73
2022/12/29 15:01:33;;;;;;;15.98;3.92;;;;;;;;;;5114766;28;20051;-73
2022/12/29 15:04:04;;;;;;;18.75;4.22;;;;;;;;;;5107785;28;20056;-73
2022/12/29 15:06:30;;;;;;;20.85;4.25;;;;;;;;;;5094346;28;20062;-74
2022/12/29 15:09:16;;;;;;;19.08;4.32;;;;;;;;;;5094166;28;20044;-74
2022/12/29 15:11:48;;;;;;;15.55;2.95;;;;;;;;;;5094321;28;20048;-73
2022/12/29 15:14:29;;;;;;;20.02;3.53;;;;;;;;;;5112236;28;20057;-73
2022/12/29 15:16:55;;;;;;;17.88;3.03;;;;;;;;;;5113456;28;20051;-73
2022/12/29 15:19:22;;;;;;;16.23;3.25;;;;;;;;;;5111845;28;20047;-74
2022/12/29 15:21:49;;;;;;;16.40;3.13;;;;;;;;;;5102712;28;20051;-73
2022/12/29 15:24:15;;;;;;;16.83;3.10;;;;;;;;;;5098373;28;20043;-74
2022/12/29 15:26:42;;;;;;;15.88;3.22;;;;;;;;;;5114543;28;20397;-73
2022/12/29 15:29:29;;;;;;;17.83;3.70;;;;;;;;;;5112296;28;20489;-73
2022/12/29 15:32:01;;;;;;;19.15;3.35;;;;;;;;;;5127052;27;20077;-73
2022/12/29 15:34:30;;;;;;;13.95;2.78;;;;;;;;;;5109847;28;20078;-73